Surface observations / UK / EGOM

Quebec | Canada | USA | France | UK | Europe | Elsewhere

Display: Info & Location for EGOM | Help decoding METAR


Raw surface observations for station EGOM
EGOM 161550Z 27005KT 5000 -DZ BKN002 BKN015 07/07 Q1026 AMB=
EGOM 161450Z 26005KT 9999 -RA BKN002 BKN007 07/07 Q1026 AMB=
EGOM 161350Z 26005KT 9999 OVC002 07/07 Q1025 AMB=
EGOM 161250Z 25007KT 5000 BR OVC002 07/07 Q1025 AMB=
EGOM 161150Z 26006KT 0500 FG OVC001 07/07 Q1025 RED=
EGOM 161050Z 27007KT 0250 FG VV/// 07/07 Q1025 RED=
EGOM 160950Z 24008KT 0100 FG VV/// 07/07 Q1025 RED=
EGOM 160850Z 27009KT 0100 FG VV/// 07/07 Q1025 RED=
EGOM 160750Z AUTO 26006KT 0150 FG VV/// 07/07 Q1024=
EGOM 160650Z AUTO 27007KT 0700 FG VV/// 07/07 Q1024=
EGOM 160550Z AUTO 26008KT 0250 -DZ VV/// 07/07 Q1023=
EGOM 160450Z AUTO 26005KT 0150 -DZ VV/// 06/06 Q1023=
EGOM 160350Z AUTO 26005KT 0100 -DZ VV/// 06/06 Q1023=
EGOM 160250Z AUTO 26003KT 0150 FG VV/// 06/06 Q1023=
EGOM 160150Z AUTO 26006KT 0250 FG OVC002/// 06/06 Q1023=
EGOM 160050Z AUTO 26005KT 0150 FG VV/// 06/06 Q1023=
EGOM 152350Z AUTO 26006KT 0150 FG VV/// 06/06 Q1023=
EGOM 152250Z AUTO 26005KT 0200 -RA VV/// 06/06 Q1023=
EGOM 152150Z AUTO 28005KT 0200 -SHRA VV/// 07/07 Q1023=
EGOM 152050Z AUTO 25005KT 0100 FG VV/// 06/06 Q1022=
EGOM 151950Z AUTO 26006KT 0250 -DZ FEW001/// BKN037/// 07/07 Q1022=
EGOM 151850Z AUTO 18005KT 0200 -DZ FEW001/// BKN050/// 06/06 Q1022=
EGOM 151750Z AUTO 31008KT 9999 BKN050/// 06/06 Q1021 RERA=
EGOM 151650Z AUTO 29006KT 9999 OVC060/// 06/06 Q1020 RERA=